EWG1GC LPPR-EDDH
Flight info
| Callsign | EWG1GC |
|---|---|
| Flight time | N/A |
| Altitude | 24000 |
| Route | TURON P600 ASDEB/N0450F380 DCT LOTEE DCT AZFIC UN741 MOKOR UN873 ARDOD DCT GODIX DCT PODEM UN873 BAZOS DCT BELDI DCT VEKIN DCT ADUTO N873 VICOT/N0446F390 DCT PABCO M105 RIBSO |
| Aircraft | A20N/M-SDE2E3FGHIRWXY/LB1 |
Departure
| Time | N/A |
|---|---|
| Airport | Francisco de Sá Carneiro Airport (LPPR) |
Arrival
| Time | 2026-04-30 18:15 |
|---|---|
| Airport | Hamburg Helmut Schmidt Airport (EDDH) |
| Time | Latitude | Longitude | Altitude | Speed | Heading |
|---|---|---|---|---|---|
| 2026-04-30 14:59 | 41.23733 | -8.67264 | 242 ft | 0 kts | 69° |
| 2026-04-30 17:39 | 52.59084 | 6.10586 | 35358 ft | 432 kts | 50° |
| 2026-04-30 17:42 | 52.78585 | 6.48528 | 35380 ft | 433 kts | 50° |
| 2026-04-30 17:43 | 52.88242 | 6.67535 | 35383 ft | 433 kts | 50° |
| 2026-04-30 17:44 | 52.99801 | 6.90473 | 35384 ft | 433 kts | 50° |
| 2026-04-30 17:47 | 53.16190 | 7.26245 | 35402 ft | 434 kts | 60° |
| 2026-04-30 17:48 | 53.21795 | 7.43378 | 35050 ft | 435 kts | 60° |
| 2026-04-30 17:48 | 53.26099 | 7.56666 | 34321 ft | 435 kts | 60° |
| 2026-04-30 17:49 | 53.31930 | 7.74802 | 32657 ft | 438 kts | 61° |
| 2026-04-30 17:50 | 53.37557 | 7.92441 | 30411 ft | 421 kts | 61° |
| 2026-04-30 17:51 | 53.41613 | 8.05223 | 28590 ft | 409 kts | 62° |
| 2026-04-30 17:52 | 53.45558 | 8.17723 | 26885 ft | 398 kts | 62° |
| 2026-04-30 17:53 | 53.51876 | 8.37887 | 24294 ft | 381 kts | 62° |
| 2026-04-30 17:54 | 53.56699 | 8.53389 | 22105 ft | 367 kts | 62° |
| 2026-04-30 17:55 | 53.61316 | 8.68323 | 20014 ft | 354 kts | 63° |
| 2026-04-30 17:56 | 53.65784 | 8.82860 | 17921 ft | 349 kts | 63° |
| 2026-04-30 17:57 | 53.69113 | 8.93752 | 15995 ft | 342 kts | 64° |
| 2026-04-30 17:58 | 53.72347 | 9.04378 | 14184 ft | 334 kts | 64° |
| 2026-04-30 17:59 | 53.76557 | 9.18293 | 11848 ft | 318 kts | 64° |
| 2026-04-30 18:00 | 53.80292 | 9.32108 | 11444 ft | 322 kts | 84° |
| 2026-04-30 18:00 | 53.77944 | 9.42453 | 11376 ft | 321 kts | 124° |
| 2026-04-30 18:01 | 53.74345 | 9.46091 | 11068 ft | 300 kts | 171° |
| 2026-04-30 18:02 | 53.68848 | 9.42983 | 10221 ft | 267 kts | 186° |
| 2026-04-30 18:02 | 53.63709 | 9.45094 | 9198 ft | 247 kts | 156° |
| 2026-04-30 18:03 | 53.58748 | 9.47509 | 8661 ft | 247 kts | 162° |
| 2026-04-30 18:04 | 53.53776 | 9.49479 | 8057 ft | 243 kts | 162° |
| 2026-04-30 18:05 | 53.47684 | 9.46629 | 6733 ft | 257 kts | 228° |
| 2026-04-30 18:06 | 53.43219 | 9.37508 | 5568 ft | 246 kts | 214° |
| 2026-04-30 18:07 | 53.38051 | 9.40535 | 4222 ft | 224 kts | 121° |
| 2026-04-30 18:08 | 53.38821 | 9.47777 | 3987 ft | 223 kts | 69° |
| 2026-04-30 18:09 | 53.42485 | 9.56036 | 3992 ft | 218 kts | 53° |
| 2026-04-30 18:10 | 53.46209 | 9.64090 | 3994 ft | 219 kts | 53° |
| 2026-04-30 18:11 | 53.50044 | 9.72053 | 3786 ft | 220 kts | 53° |
| 2026-04-30 18:11 | 53.52940 | 9.78057 | 2873 ft | 222 kts | 52° |
| 2026-04-30 18:12 | 53.55838 | 9.84047 | 1968 ft | 215 kts | 52° |
| 2026-04-30 18:13 | 53.57641 | 9.87762 | 1715 ft | 193 kts | 52° |
| 2026-04-30 18:13 | 53.59864 | 9.92410 | 769 ft | 196 kts | 52° |
| 2026-04-30 18:14 | 53.61718 | 9.96118 | 122 ft | 156 kts | 52° |
| 2026-04-30 18:15 | 53.62940 | 9.98630 | 43 ft | 21 kts | 50° |
| 2026-04-30 18:15 | 53.63092 | 9.99052 | 45 ft | 13 kts | 82° |
| 2026-04-30 18:16 | 53.63090 | 9.99177 | 44 ft | 7 kts | 94° |
| 2026-04-30 18:16 | 53.63086 | 9.99263 | 44 ft | 2 kts | 94° |
| 2026-04-30 18:17 | 53.63087 | 9.99333 | 44 ft | 9 kts | 81° |
| 2026-04-30 18:17 | 53.63092 | 9.99366 | 44 ft | 0 kts | 72° |
| 2026-04-30 18:18 | 53.63094 | 9.99376 | 44 ft | 2 kts | 72° |
| 2026-04-30 18:18 | 53.63104 | 9.99423 | 45 ft | 6 kts | 69° |
| 2026-04-30 18:19 | 53.63133 | 9.99488 | 45 ft | 8 kts | 50° |
| 2026-04-30 18:19 | 53.63169 | 9.99560 | 44 ft | 9 kts | 50° |
| 2026-04-30 18:19 | 53.63205 | 9.99634 | 44 ft | 0 kts | 52° |
| 2026-04-30 18:19 | 53.63207 | 9.99639 | 44 ft | 0 kts | 52° |
| 2026-04-30 18:20 | 53.63208 | 9.99640 | 44 ft | 1 kts | 52° |
| 2026-04-30 18:20 | 53.63217 | 9.99660 | 44 ft | 0 kts | 51° |
| 2026-04-30 18:20 | 53.63227 | 9.99685 | 44 ft | 4 kts | 64° |
| 2026-04-30 18:20 | 53.63222 | 9.99752 | 43 ft | 7 kts | 116° |
| 2026-04-30 18:21 | 53.63180 | 9.99799 | 44 ft | 8 kts | 152° |
| 2026-04-30 18:21 | 53.63140 | 9.99835 | 44 ft | 7 kts | 152° |
| 2026-04-30 18:21 | 53.63098 | 9.99871 | 45 ft | 1 kts | 154° |
| 2026-04-30 18:21 | 53.63054 | 9.99908 | 45 ft | 13 kts | 152° |
| 2026-04-30 18:22 | 53.63029 | 9.99930 | 45 ft | 5 kts | 152° |
| 2026-04-30 18:22 | 53.62958 | 9.99992 | 45 ft | 4 kts | 154° |
| 2026-04-30 18:22 | 53.62939 | 10.00007 | 45 ft | 1 kts | 154° |
| 2026-04-30 18:23 | 53.62903 | 10.00034 | 45 ft | 9 kts | 162° |
| 2026-04-30 18:23 | 53.62847 | 10.00065 | 43 ft | 9 kts | 155° |
| 2026-04-30 18:23 | 53.62791 | 10.00118 | 46 ft | 9 kts | 152° |
| 2026-04-30 18:23 | 53.62767 | 10.00139 | 46 ft | 7 kts | 152° |
| 2026-04-30 18:24 | 53.62702 | 10.00197 | 46 ft | 6 kts | 152° |
| 2026-04-30 18:24 | 53.62676 | 10.00231 | 46 ft | 3 kts | 122° |
| 2026-04-30 18:24 | 53.62673 | 10.00263 | 46 ft | 2 kts | 96° |
| 2026-04-30 18:25 | 53.62677 | 10.00303 | 46 ft | 1 kts | 76° |
| 2026-04-30 18:25 | 53.62684 | 10.00356 | 45 ft | 3 kts | 79° |
| 2026-04-30 18:25 | 53.62684 | 10.00357 | 46 ft | 2 kts | 80° |
| 2026-04-30 18:26 | 53.62683 | 10.00345 | 46 ft | 1 kts | 82° |
| 2026-04-30 18:26 | 53.62683 | 10.00346 | 46 ft | 0 kts | 82° |